createdAt,value
2019-01-21T00:02:04.327Z,101519.62
2019-01-21T00:04:31.308Z,101518.93
2019-01-21T00:06:58.264Z,101521.67
2019-01-21T00:09:25.269Z,101525.53
2019-01-21T00:11:52.227Z,101521.09
2019-01-21T00:14:19.195Z,101516.30
2019-01-21T00:16:46.178Z,101512.97
2019-01-21T00:19:13.203Z,101510.35
2019-01-21T00:21:40.172Z,101518.14
2019-01-21T00:24:07.168Z,101520.78
2019-01-21T00:26:34.083Z,101523.16
2019-01-21T00:29:01.062Z,101514.08
2019-01-21T00:31:27.992Z,101517.76
2019-01-21T00:33:54.949Z,101522.53
2019-01-21T00:36:21.859Z,101511.85
2019-01-21T00:38:48.776Z,101502.32
2019-01-21T00:41:15.770Z,101500.09
2019-01-21T00:43:42.700Z,101513.37
2019-01-21T00:46:09.708Z,101513.37
2019-01-21T00:48:36.637Z,101512.84
2019-01-21T00:51:03.650Z,101512.67
2019-01-21T00:53:30.539Z,101513.08
2019-01-21T00:55:57.490Z,101520.08
2019-01-21T00:58:24.463Z,101527.31
2019-01-21T01:00:51.529Z,101526.91
2019-01-21T01:03:18.495Z,101527.40
2019-01-21T01:05:45.515Z,101530.99
2019-01-21T01:08:12.469Z,101527.64
2019-01-21T01:10:39.491Z,101529.38
2019-01-21T01:13:06.589Z,101538.23
2019-01-21T01:15:33.582Z,101538.23
2019-01-21T01:18:00.532Z,101536.66
2019-01-21T01:20:27.600Z,101536.66
2019-01-21T01:22:54.543Z,101538.23
2019-01-21T01:25:21.614Z,101535.45
2019-01-21T01:27:48.607Z,101534.17
2019-01-21T01:30:16.618Z,101534.17
2019-01-21T01:32:43.571Z,101545.33
2019-01-21T01:35:12.229Z,101541.66
2019-01-21T01:37:39.964Z,101537.91
2019-01-21T01:40:10.193Z,101537.61
2019-01-21T01:42:37.207Z,101532.11
2019-01-21T01:45:04.894Z,101532.11
2019-01-21T01:47:32.141Z,101538.87
2019-01-21T01:49:59.226Z,101534.48
2019-01-21T01:52:26.195Z,101539.58
2019-01-21T01:54:53.216Z,101542.00
2019-01-21T01:57:20.207Z,101542.00
2019-01-21T01:59:47.309Z,101541.33
2019-01-21T02:02:14.318Z,101541.33
2019-01-21T02:04:41.441Z,101536.40
2019-01-21T02:07:08.518Z,101536.40
2019-01-21T02:09:35.463Z,101545.78
2019-01-21T02:12:02.573Z,101551.85
2019-01-21T02:14:29.500Z,101548.62
2019-01-21T02:16:56.472Z,101551.94
2019-01-21T02:19:25.871Z,101555.41
2019-01-21T02:21:56.267Z,101556.04
2019-01-21T02:24:25.070Z,101560.14
2019-01-21T02:27:19.811Z,101552.73
2019-01-21T02:30:17.488Z,101554.92
2019-01-21T02:33:27.663Z,101557.83
2019-01-21T02:36:21.787Z,101553.31
2019-01-21T02:39:06.233Z,101553.31
2019-01-21T02:41:46.395Z,101551.70
2019-01-21T02:44:32.781Z,101547.70
2019-01-21T02:47:26.656Z,101550.66
2019-01-21T02:50:21.891Z,101550.78
2019-01-21T02:53:22.044Z,101553.31
2019-01-21T02:56:52.343Z,101539.31
2019-01-21T03:00:07.317Z,101544.80
2019-01-21T03:02:50.343Z,101551.16
2019-01-21T03:05:43.024Z,101543.80
2019-01-21T03:08:31.515Z,101543.80
2019-01-21T03:11:49.248Z,101548.82
2019-01-21T03:14:40.151Z,101545.48
2019-01-21T03:17:49.214Z,101536.94
2019-01-21T03:20:30.741Z,101526.59
2019-01-21T03:23:44.311Z,101531.39
2019-01-21T03:26:55.866Z,101527.75
2019-01-21T03:29:47.975Z,101530.62
2019-01-21T03:32:55.314Z,101535.02
2019-01-21T03:36:04.342Z,101535.02
2019-01-21T03:38:58.402Z,101523.74
2019-01-21T03:41:50.233Z,101523.74
2019-01-21T03:44:59.885Z,101522.06
2019-01-21T03:48:00.945Z,101522.06
2019-01-21T03:50:59.414Z,101524.05
2019-01-21T03:54:14.737Z,101530.40
2019-01-21T03:57:02.664Z,101530.40
2019-01-21T03:59:48.115Z,101528.66
2019-01-21T04:02:45.833Z,101537.56
2019-01-21T04:05:49.791Z,101537.56
2019-01-21T04:09:13.611Z,101533.00
2019-01-21T04:12:05.946Z,101529.47
2019-01-21T04:14:48.865Z,101535.31
2019-01-21T04:17:59.626Z,101535.31
2019-01-21T04:20:38.178Z,101537.23
2019-01-21T04:23:47.649Z,101537.98
2019-01-21T04:26:55.203Z,101531.50
2019-01-21T04:30:01.493Z,101531.50
2019-01-21T04:32:57.618Z,101535.02
2019-01-21T04:35:51.420Z,101535.02
2019-01-21T04:38:58.074Z,101530.35
2019-01-21T04:41:38.686Z,101536.99
2019-01-21T04:45:02.341Z,101537.44
2019-01-21T04:48:07.504Z,101533.50
2019-01-21T04:51:10.535Z,101527.95
2019-01-21T04:54:03.878Z,101527.95
2019-01-21T04:57:02.934Z,101519.53
2019-01-21T05:00:23.840Z,101519.53
2019-01-21T05:03:19.447Z,101516.98
2019-01-21T05:06:16.454Z,101517.31
2019-01-21T05:09:13.997Z,101517.31
2019-01-21T05:12:08.130Z,101522.58
2019-01-21T05:15:00.785Z,101514.94
2019-01-21T05:17:54.767Z,101508.23
2019-01-21T05:20:46.697Z,101508.23
2019-01-21T05:23:52.823Z,101508.77
2019-01-21T05:26:54.653Z,101503.33
2019-01-21T05:29:48.508Z,101510.62
2019-01-21T05:32:56.497Z,101505.86
2019-01-21T05:36:05.520Z,101500.44
2019-01-21T05:38:58.882Z,101500.44
2019-01-21T05:42:16.674Z,101502.75
2019-01-21T05:45:30.535Z,101493.49
2019-01-21T05:48:48.706Z,101494.83
2019-01-21T05:51:56.661Z,101496.67
2019-01-21T05:54:58.454Z,101501.83
2019-01-21T05:58:02.770Z,101498.98
2019-01-21T06:01:03.347Z,101498.98
2019-01-21T06:04:01.672Z,101501.19
2019-01-21T06:07:13.071Z,101496.33
2019-01-21T06:10:09.299Z,101496.62
2019-01-21T06:13:05.471Z,101506.29
2019-01-21T06:15:55.304Z,101509.95
2019-01-21T06:19:03.624Z,101511.72
2019-01-21T06:22:18.307Z,101511.72
2019-01-21T06:25:20.489Z,101518.30
2019-01-21T06:28:28.204Z,101525.48
2019-01-21T06:31:34.175Z,101525.48
2019-01-21T06:34:43.907Z,101522.85
2019-01-21T06:37:42.509Z,101531.31
2019-01-21T06:40:49.985Z,101537.38
2019-01-21T06:43:54.362Z,101535.75
2019-01-21T06:46:45.227Z,101535.75
2019-01-21T06:49:39.659Z,101538.39
2019-01-21T06:52:42.680Z,101538.39
2019-01-21T06:55:26.796Z,101541.23
2019-01-21T06:58:38.826Z,101541.98
2019-01-21T07:01:51.751Z,101540.94
2019-01-21T07:05:15.231Z,101550.61
2019-01-21T07:08:24.018Z,101550.61
2019-01-21T07:11:19.953Z,101551.34
2019-01-21T07:14:07.525Z,101555.16
2019-01-21T07:17:19.361Z,101560.96
2019-01-21T07:20:19.435Z,101557.48
2019-01-21T07:23:19.352Z,101562.48
2019-01-21T07:26:28.020Z,101568.20
2019-01-21T07:29:19.671Z,101568.20
2019-01-21T07:32:10.888Z,101578.02
2019-01-21T07:35:20.735Z,101578.02
2019-01-21T07:38:29.571Z,101579.91
2019-01-21T07:41:22.071Z,101578.49
2019-01-21T07:44:19.424Z,101589.04
2019-01-21T07:47:29.316Z,101593.15
2019-01-21T07:50:13.383Z,101597.70
2019-01-21T07:53:22.198Z,101598.92
2019-01-21T07:56:09.883Z,101598.92
2019-01-21T07:59:14.301Z,101598.18
2019-01-21T08:01:49.088Z,101599.97
2019-01-21T08:04:36.621Z,101597.41
2019-01-21T08:07:30.592Z,101601.11
2019-01-21T08:10:40.990Z,101601.11
2019-01-21T08:13:39.200Z,101609.95
2019-01-21T08:17:03.557Z,101609.95
2019-01-21T08:19:56.307Z,101602.37
2019-01-21T08:22:57.218Z,101602.37
2019-01-21T08:26:07.986Z,101609.60
2019-01-21T08:29:10.819Z,101620.04
2019-01-21T08:32:03.283Z,101616.98
2019-01-21T08:35:30.232Z,101610.09
2019-01-21T08:38:23.797Z,101610.09
2019-01-21T08:41:20.096Z,101615.88
2019-01-21T08:44:24.568Z,101615.88
2019-01-21T08:47:28.957Z,101599.55
2019-01-21T08:50:14.784Z,101599.55
2019-01-21T08:53:21.209Z,101600.07
2019-01-21T08:56:39.618Z,101601.01
2019-01-21T08:59:21.388Z,101581.58
2019-01-21T09:02:20.851Z,101585.94
2019-01-21T09:05:37.185Z,101587.27
2019-01-21T09:08:40.478Z,101587.27
2019-01-21T09:11:27.158Z,101586.27
2019-01-21T09:14:23.826Z,101590.78
2019-01-21T09:17:34.246Z,101583.45
2019-01-21T09:20:37.454Z,101590.38
2019-01-21T09:23:43.441Z,101597.25
2019-01-21T09:26:32.400Z,101607.06
2019-01-21T09:29:18.907Z,101601.45
2019-01-21T09:31:53.807Z,101601.45
2019-01-21T09:34:29.562Z,101607.84
2019-01-21T09:37:16.302Z,101606.16
2019-01-21T09:40:07.927Z,101603.23
2019-01-21T09:42:43.254Z,101595.07
2019-01-21T09:45:53.735Z,101590.11
2019-01-21T09:48:19.915Z,101586.23
2019-01-21T09:50:47.845Z,101578.77
2019-01-21T09:53:14.740Z,101578.20
2019-01-21T09:55:44.946Z,101579.20
2019-01-21T09:58:11.859Z,101584.57
2019-01-21T10:00:39.111Z,101578.39
2019-01-21T10:03:07.517Z,101581.34
2019-01-21T10:05:35.781Z,101586.02
2019-01-21T10:08:22.606Z,101582.66
2019-01-21T10:11:28.296Z,101578.04
2019-01-21T10:14:20.765Z,101575.42
2019-01-21T10:17:14.944Z,101580.02
2019-01-21T10:20:44.807Z,101593.84
2019-01-21T10:23:43.965Z,101580.23
2019-01-21T10:26:51.160Z,101562.74
2019-01-21T10:29:32.506Z,101554.66
2019-01-21T10:32:39.927Z,101561.11
2019-01-21T10:35:47.065Z,101568.13
2019-01-21T10:39:02.535Z,101575.95
2019-01-21T10:42:04.984Z,101566.22
2019-01-21T10:45:34.658Z,101558.95
2019-01-21T10:48:12.083Z,101555.55
2019-01-21T10:51:38.934Z,101559.55
2019-01-21T10:54:31.381Z,101558.50
2019-01-21T10:57:39.485Z,101550.66
2019-01-21T11:00:53.479Z,101548.13
2019-01-21T11:03:56.919Z,101543.05
2019-01-21T11:06:43.978Z,101534.59
2019-01-21T11:09:26.801Z,101527.30
2019-01-21T11:12:36.057Z,101531.56
2019-01-21T11:15:34.799Z,101520.89
2019-01-21T11:18:42.375Z,101528.50
2019-01-21T11:21:27.111Z,101525.85
2019-01-21T11:24:31.219Z,101525.02
2019-01-21T11:27:44.349Z,101522.00
2019-01-21T11:30:45.220Z,101516.14
2019-01-21T11:33:35.896Z,101510.98
2019-01-21T11:36:46.526Z,101513.92
2019-01-21T11:39:55.292Z,101510.45
2019-01-21T11:42:48.416Z,101514.74
2019-01-21T11:45:39.578Z,101509.17
2019-01-21T11:48:40.614Z,101498.17
2019-01-21T11:51:58.970Z,101489.62
2019-01-21T11:54:58.822Z,101497.05
2019-01-21T11:57:52.048Z,101485.08
2019-01-21T12:00:51.656Z,101483.24
2019-01-21T12:03:44.097Z,101476.51
2019-01-21T12:06:16.640Z,101469.48
2019-01-21T12:09:27.551Z,101470.43
2019-01-21T12:12:13.577Z,101463.47
2019-01-21T12:14:55.165Z,101460.79
2019-01-21T12:18:00.439Z,101462.62
2019-01-21T12:21:05.749Z,101450.11
2019-01-21T12:23:51.401Z,101452.17
2019-01-21T12:27:13.571Z,101445.56
2019-01-21T12:30:07.570Z,101448.22
2019-01-21T12:33:09.282Z,101445.42
2019-01-21T12:35:45.603Z,101442.29
2019-01-21T12:38:47.888Z,101438.59
2019-01-21T12:41:47.074Z,101429.64
2019-01-21T12:44:39.292Z,101416.29
2019-01-21T12:47:48.245Z,101413.41
2019-01-21T12:51:20.952Z,101410.39
2019-01-21T12:54:16.128Z,101409.12
2019-01-21T12:57:22.194Z,101397.45
2019-01-21T13:00:26.927Z,101397.16
2019-01-21T13:03:27.904Z,101396.30
2019-01-21T13:06:37.962Z,101402.77
2019-01-21T13:09:17.285Z,101397.53
2019-01-21T13:11:57.440Z,101393.11
2019-01-21T13:14:55.356Z,101385.20
2019-01-21T13:17:35.352Z,101382.66
2019-01-21T13:20:30.930Z,101387.95
2019-01-21T13:23:31.451Z,101389.06
2019-01-21T13:26:34.885Z,101387.07
2019-01-21T13:29:24.311Z,101387.27
2019-01-21T13:32:29.371Z,101379.59
2019-01-21T13:35:36.188Z,101376.01
2019-01-21T13:38:43.666Z,101376.80
2019-01-21T13:41:48.152Z,101375.02
2019-01-21T13:44:36.366Z,101372.76
2019-01-21T13:47:31.976Z,101377.28
2019-01-21T13:50:09.808Z,101372.83
2019-01-21T13:53:14.120Z,101370.42
2019-01-21T13:56:03.142Z,101364.34
2019-01-21T13:59:08.836Z,101358.45
2019-01-21T14:01:51.451Z,101352.92
2019-01-21T14:04:41.736Z,101358.55
2019-01-21T14:07:40.111Z,101343.61
2019-01-21T14:10:36.015Z,101348.80
2019-01-21T14:13:36.310Z,101346.36
2019-01-21T14:17:06.156Z,101339.33
2019-01-21T14:20:07.692Z,101334.58
2019-01-21T14:22:57.426Z,101326.67
2019-01-21T14:26:00.759Z,101329.44
2019-01-21T14:29:12.109Z,101332.88
2019-01-21T14:32:08.233Z,101328.45
2019-01-21T14:35:06.741Z,101322.45
2019-01-21T14:38:39.340Z,101316.23
2019-01-21T14:41:47.964Z,101304.33
2019-01-21T14:44:58.652Z,101296.39
2019-01-21T14:48:02.318Z,101289.80
2019-01-21T14:51:05.867Z,101281.84
2019-01-21T14:53:47.322Z,101284.29
2019-01-21T14:56:32.757Z,101284.73
2019-01-21T14:59:14.447Z,101281.02
2019-01-21T15:02:16.653Z,101275.84
2019-01-21T15:05:14.910Z,101279.12
2019-01-21T15:08:19.581Z,101279.96
2019-01-21T15:11:46.189Z,101280.16
2019-01-21T15:14:32.386Z,101272.14
2019-01-21T15:17:32.133Z,101265.73
2019-01-21T15:20:09.139Z,101268.92
2019-01-21T15:22:45.364Z,101279.38
2019-01-21T15:26:21.368Z,101278.38
2019-01-21T15:29:08.324Z,101277.95
2019-01-21T15:32:06.734Z,101277.75
2019-01-21T15:35:26.491Z,101269.79
2019-01-21T15:38:18.448Z,101266.77
2019-01-21T15:41:27.222Z,101262.36
2019-01-21T15:44:21.061Z,101260.02
2019-01-21T15:47:44.909Z,101263.63
2019-01-21T15:50:28.733Z,101265.59
2019-01-21T15:53:49.644Z,101275.13
2019-01-21T15:57:26.073Z,101279.12
2019-01-21T16:00:38.624Z,101280.69
2019-01-21T16:04:08.213Z,101279.92
2019-01-21T16:07:05.465Z,101280.47
2019-01-21T16:10:15.895Z,101281.13
2019-01-21T16:13:33.709Z,101270.77
2019-01-21T16:17:00.617Z,101272.26
2019-01-21T16:19:40.567Z,101264.61
2019-01-21T16:22:43.555Z,101274.02
2019-01-21T16:25:48.242Z,101264.94
2019-01-21T16:28:46.765Z,101267.41
2019-01-21T16:31:36.511Z,101268.30
2019-01-21T16:34:56.088Z,101265.19
2019-01-21T16:37:42.698Z,101264.77
2019-01-21T16:40:40.716Z,101267.14
2019-01-21T16:43:07.692Z,101269.16
2019-01-21T16:45:34.654Z,101272.57
2019-01-21T16:48:01.697Z,101268.97
2019-01-21T16:50:28.578Z,101266.38
2019-01-21T16:52:55.511Z,101263.92
2019-01-21T16:55:22.413Z,101255.94
2019-01-21T16:57:49.321Z,101259.28
2019-01-21T17:00:16.396Z,101254.84
2019-01-21T17:02:43.299Z,101255.16
2019-01-21T17:05:10.795Z,101261.41
2019-01-21T17:07:37.665Z,101257.66
2019-01-21T17:10:05.835Z,101251.63
2019-01-21T17:12:32.722Z,101248.86
2019-01-21T17:14:59.620Z,101239.66
2019-01-21T17:17:26.516Z,101248.31
2019-01-21T17:19:53.420Z,101245.16
2019-01-21T17:22:20.442Z,101243.40
2019-01-21T17:24:47.409Z,101238.93
2019-01-21T17:27:14.287Z,101240.11
2019-01-21T17:29:41.215Z,101229.52
2019-01-21T17:32:08.202Z,101235.37
2019-01-21T17:34:35.159Z,101234.08
2019-01-21T17:37:02.080Z,101235.78
2019-01-21T17:39:28.992Z,101235.09
2019-01-21T17:41:55.901Z,101228.23
2019-01-21T17:44:22.942Z,101232.91
2019-01-21T17:46:49.862Z,101226.05
2019-01-21T17:49:16.775Z,101230.13
2019-01-21T17:51:43.719Z,101229.50
2019-01-21T17:54:10.620Z,101229.61
2019-01-21T17:56:37.538Z,101227.73
2019-01-21T17:59:04.477Z,101226.58
2019-01-21T18:01:31.433Z,101222.94
2019-01-21T18:03:58.369Z,101222.50
2019-01-21T18:06:25.323Z,101219.11
2019-01-21T18:08:52.600Z,101218.02
2019-01-21T18:11:19.500Z,101212.78
2019-01-21T18:13:46.578Z,101213.27
2019-01-21T18:16:13.712Z,101211.35
2019-01-21T18:18:40.619Z,101212.30
2019-01-21T18:21:07.598Z,101206.01
2019-01-21T18:23:34.606Z,101204.16
2019-01-21T18:26:01.571Z,101200.02
2019-01-21T18:28:28.831Z,101201.25
2019-01-21T18:30:55.745Z,101192.60
2019-01-21T18:33:22.742Z,101189.14
2019-01-21T18:35:49.667Z,101190.38
2019-01-21T18:38:16.711Z,101193.70
2019-01-21T18:40:43.888Z,101189.93
2019-01-21T18:43:10.813Z,101192.83
2019-01-21T18:45:37.837Z,101188.77
2019-01-21T18:48:05.010Z,101190.05
2019-01-21T18:50:31.949Z,101184.67
2019-01-21T18:52:58.896Z,101179.85
2019-01-21T18:55:26.461Z,101175.94
2019-01-21T18:57:55.995Z,101179.40
2019-01-21T19:00:23.775Z,101180.16
2019-01-21T19:02:50.664Z,101179.29
2019-01-21T19:05:17.918Z,101184.30
2019-01-21T19:07:45.058Z,101180.56
2019-01-21T19:10:12.349Z,101178.38
2019-01-21T19:12:39.327Z,101187.29
2019-01-21T19:15:10.472Z,101184.66
2019-01-21T19:17:37.391Z,101181.77
2019-01-21T19:20:05.586Z,101182.88
2019-01-21T19:22:32.619Z,101182.88
2019-01-21T19:24:59.923Z,101183.18
2019-01-21T19:27:26.793Z,101185.39
2019-01-21T19:29:53.905Z,101188.23
2019-01-21T19:32:20.866Z,101180.50
2019-01-21T19:34:47.836Z,101178.05
2019-01-21T19:37:14.752Z,101170.26
2019-01-21T19:39:41.649Z,101171.63
2019-01-21T19:42:09.052Z,101171.26
2019-01-21T19:44:35.973Z,101170.69
2019-01-21T19:47:03.077Z,101174.36
2019-01-21T19:49:30.097Z,101171.55
2019-01-21T19:52:00.423Z,101171.31
2019-01-21T19:54:26.161Z,101178.12
2019-01-21T19:56:53.160Z,101173.88
2019-01-21T19:59:20.203Z,101167.24
2019-01-21T20:01:47.163Z,101174.53
2019-01-21T20:04:14.107Z,101171.65
2019-01-21T20:06:41.116Z,101165.47
2019-01-21T20:09:08.098Z,101164.64
2019-01-21T20:11:35.091Z,101161.18
2019-01-21T20:14:02.064Z,101158.95
2019-01-21T20:16:29.302Z,101161.51
2019-01-21T20:18:56.240Z,101150.95
2019-01-21T20:21:23.261Z,101153.39
2019-01-21T20:23:50.266Z,101153.55
2019-01-21T20:26:17.207Z,101155.61
2019-01-21T20:28:44.119Z,101148.28
2019-01-21T20:31:11.037Z,101141.30
2019-01-21T20:33:37.985Z,101153.09
2019-01-21T20:36:04.990Z,101150.02
2019-01-21T20:38:31.925Z,101155.11
2019-01-21T20:40:58.864Z,101150.62
2019-01-21T20:43:25.802Z,101158.93
2019-01-21T20:45:52.734Z,101161.36
2019-01-21T20:48:19.696Z,101151.80
2019-01-21T20:50:46.635Z,101152.20
2019-01-21T20:53:13.624Z,101152.59
2019-01-21T20:55:40.538Z,101147.36
2019-01-21T20:58:07.485Z,101146.31
2019-01-21T21:00:35.773Z,101146.81
2019-01-21T21:03:02.876Z,101145.19
2019-01-21T21:05:30.072Z,101140.56
2019-01-21T21:07:57.062Z,101150.32
2019-01-21T21:10:24.386Z,101143.57
2019-01-21T21:12:51.462Z,101140.16
2019-01-21T21:15:20.697Z,101138.87
2019-01-21T21:17:47.956Z,101143.42
2019-01-21T21:20:14.985Z,101137.27
2019-01-21T21:22:41.909Z,101141.25
2019-01-21T21:25:10.944Z,101139.98
2019-01-21T21:27:38.052Z,101143.88
2019-01-21T21:30:07.961Z,101140.12
2019-01-21T21:32:34.867Z,101141.83
2019-01-21T21:35:01.926Z,101138.59
2019-01-21T21:37:29.115Z,101128.97
2019-01-21T21:39:56.352Z,101123.12
2019-01-21T21:42:23.277Z,101125.01
2019-01-21T21:44:50.384Z,101122.08
2019-01-21T21:47:17.433Z,101116.48
2019-01-21T21:49:44.386Z,101114.34
2019-01-21T21:52:11.336Z,101112.02
2019-01-21T21:54:38.660Z,101113.23
2019-01-21T21:57:05.587Z,101104.42
2019-01-21T21:59:32.974Z,101101.41
2019-01-21T22:02:00.035Z,101104.09
2019-01-21T22:04:26.955Z,101105.91
2019-01-21T22:06:53.891Z,101104.45
2019-01-21T22:09:21.030Z,101098.63
2019-01-21T22:11:47.946Z,101108.13
2019-01-21T22:14:15.353Z,101095.36
2019-01-21T22:16:42.329Z,101088.06
2019-01-21T22:19:09.395Z,101090.99
2019-01-21T22:21:36.391Z,101088.39
2019-01-21T22:24:03.429Z,101083.24
2019-01-21T22:26:30.347Z,101076.19
2019-01-21T22:28:57.289Z,101072.27
2019-01-21T22:31:24.189Z,101069.94
2019-01-21T22:33:51.131Z,101069.20
2019-01-21T22:36:18.036Z,101067.80
2019-01-21T22:38:44.960Z,101061.02
2019-01-21T22:41:11.856Z,101058.59
2019-01-21T22:43:39.078Z,101058.51
2019-01-21T22:46:05.993Z,101053.81
2019-01-21T22:48:32.939Z,101047.73
2019-01-21T22:50:59.890Z,101051.23
2019-01-21T22:53:26.818Z,101042.48
2019-01-21T22:55:53.903Z,101019.00
2019-01-21T22:58:20.894Z,101046.36
2019-01-21T23:00:55.471Z,101046.81
2019-01-21T23:03:23.239Z,101044.41
2019-01-21T23:05:50.181Z,101041.03
2019-01-21T23:08:17.297Z,101041.81
2019-01-21T23:10:44.234Z,101030.26
2019-01-21T23:13:11.192Z,101032.30
2019-01-21T23:15:38.162Z,101033.06
2019-01-21T23:18:05.394Z,101033.40
2019-01-21T23:20:32.487Z,101033.67
2019-01-21T23:22:59.473Z,101028.70
2019-01-21T23:25:26.417Z,101030.84
2019-01-21T23:27:53.402Z,101028.02
2019-01-21T23:30:20.877Z,101023.00
2019-01-21T23:32:47.765Z,101011.19
2019-01-21T23:35:14.734Z,101013.88
2019-01-21T23:37:41.657Z,101009.22
2019-01-21T23:40:09.030Z,101004.69
2019-01-21T23:42:35.984Z,101001.07
2019-01-21T23:45:04.235Z,100998.06
2019-01-21T23:47:31.138Z,100991.67
2019-01-21T23:49:58.068Z,100990.19
2019-01-21T23:52:25.026Z,100987.64
2019-01-21T23:54:52.262Z,100993.12
2019-01-21T23:57:19.176Z,100985.30
2019-01-21T23:59:46.090Z,100983.56
